Terminal Aerodrome Forecast
Issued by NWS Pueblo, CO

Home | Current Version | Previous Version | Text Only | Print | Product List | Glossary On
Versions: 1 2 3 4 5 6 7 8 9 10 11 12 13 14 15 16 17 18 19 20 21 22 23 24
000
FTUS45 KPUB 210544
TAFCOS
TAF
KCOS 210544Z 2106/2206 13008KT 1/2SM SN FG OVC003
      TEMPO 2106/2108 1SM -SN BR SCT003 OVC006
     FM210800 06008KT 3SM -SHSN BR BKN006 OVC012
     FM211000 02012KT P6SM VCSH SCT008 OVC015
     FM211400 35012G22KT P6SM SCT025 BKN060
     FM212100 08010KT P6SM VCSH SCT040 BKN090
     FM220200 14008KT P6SM SCT020 BKN040=

USA.gov is the U.S. government's official web portal to all federal, state and local government web resources and services.